Time;durP1;ratioP1;P1;durP2;ratioP2;P2;SDS_P1;SDS_P2;PMS_P1;PMS_P2;Temp;Humidity;BMP_temperature;BMP_pressure;BME280_temperature;BME280_humidity;BME280_pressure;Samples;Min_cycle;Max_cycle;Signal;HPM_P1;HPM_P2
2021/10/18 09:46:37;;;;;;;11.98;8.25;;;10.70;99.90;;;;;;5090963;28;20549;-69
2021/10/18 10:53:23;;;;;;;7.20;6.45;;;;;;;;;;5089981;28;20248;-69
2021/10/18 10:55:52;;;;;;;8.50;6.93;;;;;;;;;;5086959;28;20170;-69
2021/10/18 10:58:48;;;;;;;9.52;6.75;;;;;;;;;;5076136;28;20169;-69
2021/10/18 11:01:53;;;;;;;9.82;6.97;;;12.60;99.90;;;;;;5076102;28;20621;-69
2021/10/18 11:04:33;;;;;;;7.53;6.53;;;;;;;;;;5076103;28;20172;-69
2021/10/18 11:07:04;;;;;;;6.43;5.85;;;;;;;;;;5075876;28;20168;-69
2021/10/18 11:09:38;;;;;;;8.82;6.60;;;;;;;;;;5076000;28;20610;-70
2021/10/18 11:12:07;;;;;;;7.13;6.13;;;;;;;;;;5075891;28;20169;-69
2021/10/18 11:14:33;;;;;;;9.13;7.03;;;12.90;99.90;;;;;;5075872;28;20614;-70
2021/10/18 11:16:58;;;;;;;7.22;6.63;;;13.50;99.90;;;;;;5075812;28;20625;-70
2021/10/18 11:19:24;;;;;;;9.15;5.70;;;13.30;99.90;;;;;;5075769;28;20222;-69
2021/10/18 11:22:00;;;;;;;7.10;4.95;;;13.40;99.90;;;;;;5075691;28;20196;-69
2021/10/18 11:24:39;;;;;;;10.30;6.20;;;13.10;99.90;;;;;;5075635;28;20172;-69
2021/10/18 11:27:05;;;;;;;8.13;5.10;;;13.90;99.90;;;;;;5075750;28;20243;-69
2021/10/18 11:29:33;;;;;;;5.15;4.57;;;13.70;99.90;;;;;;5075451;28;20724;-70
2021/10/18 11:32:09;;;;;;;9.70;5.20;;;13.80;99.90;;;;;;5075523;28;20613;-70
2021/10/18 11:34:36;;;;;;;5.53;5.03;;;13.30;99.90;;;;;;5075465;28;20609;-69
2021/10/18 11:37:02;;;;;;;7.57;5.50;;;13.30;99.90;;;;;;5075440;28;20168;-70
2021/10/18 11:39:30;;;;;;;5.88;5.05;;;13.30;99.90;;;;;;5075371;28;20527;-69
2021/10/18 11:41:59;;;;;;;6.40;4.65;;;13.80;99.90;;;;;;5075338;28;20172;-70
2021/10/18 11:44:57;;;;;;;7.40;6.20;;;13.40;99.90;;;;;;5075065;28;20165;-70
2021/10/18 11:47:37;;;;;;;5.75;5.15;;;13.40;99.90;;;;;;5073917;28;20184;-70
2021/10/18 11:50:16;;;;;;;12.40;6.90;;;13.90;99.90;;;;;;5075310;28;20570;-70
2021/10/18 11:53:02;;;;;;;7.35;5.95;;;13.20;99.90;;;;;;5075081;28;20160;-70
2021/10/18 11:55:33;;;;;;;5.53;4.85;;;13.80;99.90;;;;;;5075041;28;20651;-69
2021/10/18 11:58:04;;;;;;;5.82;5.32;;;13.90;99.90;;;;;;5074046;28;20173;-70
2021/10/18 12:00:41;;;;;;;9.73;6.03;;;;;;;;;;5075082;28;20168;-69
2021/10/18 12:03:12;;;;;;;6.70;5.18;;;13.40;99.90;;;;;;5074833;28;20565;-69
2021/10/18 12:05:44;;;;;;;6.22;5.60;;;13.90;99.90;;;;;;5074736;28;20202;-70
2021/10/18 12:08:11;;;;;;;6.03;5.43;;;13.70;99.90;;;;;;5073856;28;20167;-70
2021/10/18 12:10:39;;;;;;;6.47;5.97;;;13.80;99.90;;;;;;5074709;28;20164;-70
2021/10/18 12:13:05;;;;;;;10.07;6.22;;;14.00;99.90;;;;;;5073399;28;20198;-69
2021/10/18 12:15:35;;;;;;;6.07;5.45;;;13.90;99.90;;;;;;5074597;28;20177;-70
2021/10/18 12:18:01;;;;;;;6.18;5.50;;;;;;;;;;5074581;28;20220;-70
2021/10/18 12:20:27;;;;;;;6.32;5.80;;;13.80;99.90;;;;;;5074478;28;20179;-70
2021/10/18 12:23:16;;;;;;;9.45;5.55;;;13.80;99.90;;;;;;5074491;28;20181;-70
2021/10/18 12:25:56;;;;;;;6.93;5.10;;;14.30;99.90;;;;;;5074415;28;20192;-70
2021/10/18 12:28:28;;;;;;;6.75;5.60;;;14.00;99.90;;;;;;5074279;28;20182;-70
2021/10/18 12:30:55;;;;;;;6.53;5.93;;;14.30;99.90;;;;;;5074353;28;20164;-69
2021/10/18 12:33:21;;;;;;;6.03;5.53;;;14.30;99.90;;;;;;5074347;28;20165;-70
2021/10/18 12:35:57;;;;;;;6.15;5.55;;;14.40;99.90;;;;;;5074525;28;20253;-69
2021/10/18 12:38:27;;;;;;;7.40;6.78;;;14.40;99.90;;;;;;5074291;28;20629;-70
2021/10/18 12:41:22;;;;;;;6.70;5.80;;;14.40;99.90;;;;;;5074032;28;20169;-70
2021/10/18 12:43:50;;;;;;;5.93;5.32;;;14.20;99.90;;;;;;5074112;28;20569;-70
2021/10/18 12:46:21;;;;;;;5.90;5.32;;;14.40;99.90;;;;;;5073822;28;20228;-70
2021/10/18 12:48:58;;;;;;;6.30;5.53;;;14.40;99.90;;;;;;5074012;28;20679;-70
2021/10/18 12:51:41;;;;;;;7.35;5.90;;;14.70;99.90;;;;;;5073953;28;20165;-70
2021/10/18 12:54:22;;;;;;;6.93;6.03;;;14.70;99.90;;;;;;5073937;28;20214;-70
2021/10/18 12:57:04;;;;;;;6.82;5.28;;;14.70;99.90;;;;;;5073842;28;20180;-69
2021/10/18 12:59:31;;;;;;;7.80;5.53;;;14.80;99.90;;;;;;5073803;28;20168;-69
2021/10/18 13:02:21;;;;;;;8.55;5.60;;;14.90;99.90;;;;;;5073746;28;20168;-70
2021/10/18 13:05:15;;;;;;;6.60;6.00;;;15.00;99.90;;;;;;5073703;28;20172;-70
2021/10/18 13:07:44;;;;;;;6.97;6.30;;;15.10;99.90;;;;;;5073741;28;20168;-70
2021/10/18 13:10:12;;;;;;;6.63;5.85;;;15.30;99.90;;;;;;5073658;28;20630;-69
2021/10/18 13:12:38;;;;;;;6.75;6.15;;;15.30;99.90;;;;;;5073644;28;20176;-69
2021/10/18 13:15:04;;;;;;;6.75;6.00;;;15.30;99.90;;;;;;5073477;28;20190;-70
2021/10/18 13:17:30;;;;;;;7.20;6.00;;;15.10;99.90;;;;;;5073653;28;20175;-69
2021/10/18 13:19:56;;;;;;;7.25;6.53;;;15.10;99.90;;;;;;5073284;28;20161;-70
2021/10/18 13:22:22;;;;;;;7.18;6.47;;;15.00;99.90;;;;;;5072173;28;20279;-70
2021/10/18 13:24:47;;;;;;;6.95;6.00;;;15.20;99.90;;;;;;5073439;28;20160;-70
2021/10/18 13:27:13;;;;;;;6.95;6.25;;;15.20;99.90;;;;;;5073424;28;20160;-70
2021/10/18 13:29:38;;;;;;;6.95;6.30;;;15.20;99.90;;;;;;5073337;28;20188;-70
2021/10/18 13:32:05;;;;;;;8.70;6.25;;;15.00;99.90;;;;;;5073406;28;20169;-70
2021/10/18 13:34:32;;;;;;;8.18;7.35;;;15.10;99.90;;;;;;5073243;28;20629;-70
2021/10/18 13:36:58;;;;;;;6.85;6.25;;;15.00;99.90;;;;;;5073315;28;20169;-70
2021/10/18 13:39:26;;;;;;;7.65;6.70;;;14.90;99.90;;;;;;5073198;28;20173;-70
2021/10/18 13:41:51;;;;;;;8.20;6.45;;;14.90;99.90;;;;;;5073202;28;20207;-70
2021/10/18 13:44:17;;;;;;;9.85;7.07;;;14.90;99.90;;;;;;5073095;28;20210;-70
2021/10/18 13:46:43;;;;;;;9.55;6.95;;;15.00;99.90;;;;;;5073295;28;20173;-70
2021/10/18 13:49:08;;;;;;;9.55;7.18;;;14.70;99.90;;;;;;5071967;28;20176;-70
2021/10/18 13:51:35;;;;;;;8.48;7.57;;;15.00;99.90;;;;;;5073132;28;20211;-70
2021/10/18 13:54:01;;;;;;;8.23;7.45;;;14.70;99.90;;;;;;5073198;28;20184;-70
2021/10/18 13:56:27;;;;;;;9.45;7.82;;;14.40;99.90;;;;;;5073112;28;20204;-70
2021/10/18 13:58:53;;;;;;;8.95;7.85;;;14.50;99.90;;;;;;5073147;28;20173;-70
2021/10/18 14:01:20;;;;;;;8.07;7.38;;;;;;;;;;5073178;28;20240;-70
2021/10/18 14:03:47;;;;;;;10.52;7.50;;;;;;;;;;5073127;28;20686;-69
2021/10/18 14:06:13;;;;;;;9.88;8.63;;;13.90;99.90;;;;;;5073046;28;20221;-69
2021/10/18 14:08:39;;;;;;;10.32;8.07;;;13.90;99.90;;;;;;5073074;28;20176;-69
2021/10/18 14:11:05;;;;;;;9.40;8.32;;;14.00;99.90;;;;;;5072974;28;20239;-70
2021/10/18 14:13:33;;;;;;;12.23;8.13;;;14.30;99.90;;;;;;5073047;28;20200;-69
2021/10/18 14:15:59;;;;;;;9.18;8.25;;;14.00;99.90;;;;;;5072959;28;20295;-70
2021/10/18 14:18:24;;;;;;;9.25;8.15;;;14.20;99.90;;;;;;5072914;28;20204;-70
2021/10/18 14:20:50;;;;;;;10.13;8.73;;;14.10;99.90;;;;;;5072863;28;20206;-69
2021/10/18 14:23:16;;;;;;;9.95;8.32;;;14.30;99.90;;;;;;5072903;28;20553;-69
2021/10/18 14:25:42;;;;;;;10.68;9.38;;;14.30;99.90;;;;;;5072928;28;20168;-70
2021/10/18 14:28:07;;;;;;;11.10;9.80;;;14.10;99.90;;;;;;5072812;28;20442;-69
2021/10/18 14:30:33;;;;;;;10.15;8.77;;;13.80;99.90;;;;;;5071587;28;20168;-70
2021/10/18 14:33:00;;;;;;;11.90;8.95;;;13.60;99.90;;;;;;5076205;28;20191;-69
2021/10/18 14:35:25;;;;;;;9.80;8.73;;;14.10;99.90;;;;;;5076471;28;20220;-69
2021/10/18 14:37:51;;;;;;;12.55;9.70;;;13.50;99.90;;;;;;5076491;28;20204;-69
2021/10/18 14:40:17;;;;;;;11.80;9.32;;;13.90;99.90;;;;;;5076502;28;20165;-69
2021/10/18 14:42:42;;;;;;;10.68;8.48;;;14.10;99.90;;;;;;5076453;28;20171;-70
2021/10/18 14:45:09;;;;;;;11.80;8.55;;;13.80;99.90;;;;;;5076252;28;20273;-70
2021/10/18 14:47:35;;;;;;;13.13;9.00;;;13.60;99.90;;;;;;5076380;28;20222;-70
2021/10/18 14:50:06;;;;;;;11.07;9.13;;;14.00;99.90;;;;;;5076213;28;20165;-69
2021/10/18 14:52:33;;;;;;;11.60;9.02;;;13.60;99.90;;;;;;5076307;28;20199;-70
2021/10/18 14:54:58;;;;;;;10.02;8.45;;;13.60;99.90;;;;;;5076108;28;20199;-69
2021/10/18 14:57:24;;;;;;;10.65;9.30;;;14.00;99.90;;;;;;5074847;28;20176;-69
2021/10/18 14:59:51;;;;;;;13.73;9.65;;;13.80;99.90;;;;;;5076131;28;20165;-69
2021/10/18 15:02:18;;;;;;;12.60;9.52;;;13.80;99.90;;;;;;5076078;28;20648;-70
2021/10/18 15:04:43;;;;;;;12.95;9.23;;;13.70;99.90;;;;;;5076086;28;20172;-69
2021/10/18 15:07:10;;;;;;;13.10;9.63;;;13.50;99.90;;;;;;5075974;28;20243;-70
2021/10/18 15:09:36;;;;;;;13.30;10.02;;;13.10;99.90;;;;;;5076028;28;20629;-69
2021/10/18 15:12:05;;;;;;;12.40;10.40;;;13.30;99.90;;;;;;5075854;28;20169;-70
2021/10/18 15:14:30;;;;;;;14.45;9.75;;;12.90;99.90;;;;;;5075836;28;20165;-69
2021/10/18 15:16:56;;;;;;;14.38;10.65;;;13.30;99.90;;;;;;5075683;28;20268;-69
2021/10/18 15:19:21;;;;;;;13.77;10.73;;;13.00;99.90;;;;;;5075764;28;20222;-69
2021/10/18 15:21:47;;;;;;;14.98;10.27;;;12.90;99.90;;;;;;5074469;28;20179;-69
2021/10/18 15:24:14;;;;;;;14.35;9.95;;;13.20;99.90;;;;;;5074393;28;20176;-69
2021/10/18 15:26:41;;;;;;;13.63;10.13;;;13.00;99.90;;;;;;5075679;28;20222;-69
2021/10/18 15:29:06;;;;;;;15.70;10.27;;;13.00;99.90;;;;;;5075547;28;20258;-69
2021/10/18 15:31:32;;;;;;;14.02;10.38;;;13.00;99.90;;;;;;5075486;28;20703;-69
2021/10/18 15:33:58;;;;;;;14.75;11.13;;;13.20;99.90;;;;;;5075551;28;20171;-69
2021/10/18 15:36:24;;;;;;;17.02;11.48;;;12.90;99.90;;;;;;5075378;28;20283;-69
2021/10/18 15:38:50;;;;;;;14.45;10.23;;;12.80;99.90;;;;;;5075399;28;20172;-69
2021/10/18 15:41:16;;;;;;;13.13;10.95;;;12.80;99.90;;;;;;5075353;28;20160;-69
2021/10/18 15:43:41;;;;;;;14.30;10.57;;;13.10;99.90;;;;;;5075174;28;20275;-69
2021/10/18 15:46:07;;;;;;;15.45;11.30;;;12.60;99.90;;;;;;5074971;28;20366;-69
2021/10/18 15:48:33;;;;;;;15.48;11.60;;;12.70;99.90;;;;;;5073938;28;20535;-69
2021/10/18 15:50:59;;;;;;;14.68;11.23;;;12.70;99.90;;;;;;5075237;28;20251;-69
2021/10/18 15:53:24;;;;;;;17.70;10.98;;;12.10;99.90;;;;;;5075154;28;20652;-69
2021/10/18 15:55:50;;;;;;;20.73;11.95;;;12.40;99.90;;;;;;5075040;28;20283;-69
2021/10/18 15:58:16;;;;;;;19.92;11.48;;;12.50;99.90;;;;;;5075079;28;20179;-69
2021/10/18 16:00:42;;;;;;;18.13;12.32;;;12.20;99.90;;;;;;5074907;28;20172;-69
2021/10/18 16:03:08;;;;;;;17.65;11.85;;;12.70;99.90;;;;;;5074941;28;20168;-69
2021/10/18 16:05:34;;;;;;;19.73;12.38;;;12.40;99.90;;;;;;5075134;28;20582;-69
2021/10/18 16:08:00;;;;;;;22.05;13.27;;;12.30;99.90;;;;;;5074864;28;20628;-69
2021/10/18 16:10:26;;;;;;;17.52;12.18;;;12.20;99.90;;;;;;5074783;28;20259;-69
2021/10/18 16:12:52;;;;;;;20.75;12.48;;;12.10;99.90;;;;;;5074756;28;20172;-69
2021/10/18 16:15:17;;;;;;;18.38;12.85;;;12.00;99.90;;;;;;5074477;28;20695;-69
